Terminal Aerodrome Forecast
Issued by NWS

Home | Current Version | Previous Version | Graphics & Text | Print | Product List | Glossary On
Versions: 1 2 3 4 5 6 7 8 9 10 11 12 13 14 15 16 17 18 19 20 21 22 23 24
062
FTUS43 KBIS 151048 AAB
TAFJMS
TAF AMD
KJMS 151048Z 1511/1606 VRB05KT P6SM -SN SCT005 OVC025
     FM151200 27006KT P6SM OVC015
     FM151500 22008KT P6SM OVC020
     FM151800 22010KT P6SM OVC035
     FM152200 21006KT P6SM OVC045=

USA.gov is the U.S. government's official web portal to all federal, state and local government web resources and services.